Time;durP1;ratioP1;P1;durP2;ratioP2;P2;SDS_P1;SDS_P2;PMS_P1;PMS_P2;Temp;Humidity;BMP_temperature;BMP_pressure;BME280_temperature;BME280_humidity;BME280_pressure;Samples;Min_cycle;Max_cycle;Signal;HPM_P1;HPM_P2
2023/05/16 00:01:40;;;;;;;7.15;0.10;;;8.70;99.90;;;;;;5055255;28;20028;-77
2023/05/16 00:04:06;;;;;;;5.90;0.30;;;8.60;99.90;;;;;;5055109;28;20048;-77
2023/05/16 00:06:32;;;;;;;18.00;0.47;;;8.60;99.90;;;;;;5055349;28;20476;-77
2023/05/16 00:08:58;;;;;;;8.35;0.52;;;8.50;99.90;;;;;;5054941;28;20017;-77
2023/05/16 00:11:23;;;;;;;5.97;0.65;;;8.50;99.90;;;;;;5055151;28;20496;-77
2023/05/16 00:13:50;;;;;;;7.55;0.70;;;;;;;;;;5055114;28;20040;-77
2023/05/16 00:16:16;;;;;;;8.02;0.95;;;8.40;99.90;;;;;;5055282;28;20068;-77
2023/05/16 00:18:44;;;;;;;6.15;0.05;;;8.40;99.90;;;;;;5054947;28;20383;-77
2023/05/16 00:21:10;;;;;;;10.75;0.95;;;8.40;99.90;;;;;;5055547;28;20017;-77
2023/05/16 00:23:36;;;;;;;6.00;0.10;;;8.40;99.90;;;;;;5055036;28;20025;-77
2023/05/16 00:26:01;;;;;;;12.25;0.85;;;8.30;99.90;;;;;;5037028;28;20395;-77
2023/05/16 00:28:27;;;;;;;6.63;0.10;;;8.30;99.90;;;;;;5036214;28;20025;-77
2023/05/16 00:30:53;;;;;;;7.80;0.45;;;;;;;;;;5054960;28;20036;-77
2023/05/16 00:33:19;;;;;;;8.02;0.40;;;8.20;99.90;;;;;;5054512;28;20048;-77
2023/05/16 00:35:44;;;;;;;8.93;0.50;;;8.10;99.90;;;;;;5055089;28;20025;-77
2023/05/16 00:38:10;;;;;;;7.88;0.20;;;8.10;99.90;;;;;;5036752;28;20059;-77
2023/05/16 00:40:35;;;;;;;6.00;0.25;;;8.10;99.90;;;;;;5036731;28;20025;-77
2023/05/16 00:43:01;;;;;;;5.05;0.40;;;9.60;99.90;;;;;;5055588;28;20020;-77
2023/05/16 00:45:27;;;;;;;10.30;1.10;;;8.10;99.90;;;;;;5036913;28;20033;-77
2023/05/16 00:47:53;;;;;;;5.05;0.10;;;8.10;99.90;;;;;;5036888;28;20056;-77
2023/05/16 00:50:19;;;;;;;8.07;0.77;;;8.10;99.90;;;;;;5054616;28;20060;-77
2023/05/16 00:52:44;;;;;;;10.27;0.90;;;8.00;99.90;;;;;;5037010;28;20021;-77
2023/05/16 00:55:11;;;;;;;6.00;0.40;;;;;;;;;;5054753;28;20045;-77
2023/05/16 00:57:37;;;;;;;4.55;0.22;;;7.90;99.90;;;;;;5036699;28;20033;-77
2023/05/16 01:00:09;;;;;;;7.00;0.10;;;7.80;99.90;;;;;;5054222;28;20028;-77
2023/05/16 01:02:35;;;;;;;8.45;0.73;;;7.80;99.90;;;;;;5037468;28;20372;-76
2023/05/16 01:05:04;;;;;;;4.32;0.30;;;7.70;99.90;;;;;;5054622;28;20100;-77
2023/05/16 01:07:30;;;;;;;9.68;0.95;;;7.60;99.90;;;;;;5054733;28;20032;-77
2023/05/16 01:09:55;;;;;;;3.13;0.00;;;7.90;99.90;;;;;;5054646;28;20029;-77
2023/05/16 01:12:51;;;;;;;4.20;0.20;;;7.60;99.90;;;;;;5036463;28;20021;-78
2023/05/16 01:15:31;;;;;;;8.35;0.47;;;7.60;99.90;;;;;;5044002;28;20033;-77
2023/05/16 01:18:18;;;;;;;6.75;0.52;;;7.50;99.90;;;;;;5054132;28;20515;-77
2023/05/16 01:21:02;;;;;;;10.10;0.80;;;7.50;99.90;;;;;;5036436;28;20556;-77
2023/05/16 01:23:47;;;;;;;5.60;0.68;;;7.40;99.90;;;;;;5054463;28;20032;-77
2023/05/16 01:26:21;;;;;;;13.25;1.05;;;7.40;99.90;;;;;;5036828;28;20106;-77
2023/05/16 01:28:47;;;;;;;10.05;0.70;;;7.40;99.90;;;;;;5054081;28;20021;-77
2023/05/16 01:31:13;;;;;;;8.32;0.00;;;7.30;99.90;;;;;;5036174;28;20484;-77
2023/05/16 01:33:39;;;;;;;9.32;0.35;;;7.30;99.90;;;;;;5036346;28;20028;-77
2023/05/16 01:36:40;;;;;;;5.35;0.70;;;7.20;99.90;;;;;;5054910;28;20040;-77
2023/05/16 01:39:18;;;;;;;7.15;0.35;;;7.20;99.90;;;;;;5040274;28;20486;-77
2023/05/16 01:41:56;;;;;;;7.32;0.20;;;7.20;99.90;;;;;;5042615;28;20048;-77
2023/05/16 01:44:29;;;;;;;11.53;0.43;;;7.20;99.90;;;;;;5061435;28;20017;-77
2023/05/16 01:47:06;;;;;;;5.22;0.50;;;7.20;99.90;;;;;;5060363;28;20113;-77
2023/05/16 01:50:01;;;;;;;9.23;0.08;;;7.20;99.90;;;;;;5042350;28;20032;-77
2023/05/16 01:52:35;;;;;;;4.90;0.03;;;7.20;99.90;;;;;;5043350;28;20025;-77
2023/05/16 01:55:02;;;;;;;8.45;0.90;;;7.20;99.90;;;;;;5042446;28;20480;-77
2023/05/16 01:57:28;;;;;;;8.48;0.30;;;7.30;99.90;;;;;;5042321;28;20056;-77
2023/05/16 01:59:55;;;;;;;9.88;0.57;;;7.20;99.90;;;;;;5060532;28;20036;-77
2023/05/16 02:02:20;;;;;;;7.63;0.65;;;7.20;99.90;;;;;;5060571;28;20021;-77
2023/05/16 02:04:46;;;;;;;10.80;0.65;;;7.20;99.90;;;;;;5061095;28;20469;-77
2023/05/16 02:07:13;;;;;;;6.32;0.50;;;7.40;99.90;;;;;;5060299;28;20366;-77
2023/05/16 02:09:39;;;;;;;12.45;0.52;;;7.10;99.90;;;;;;5042373;28;20017;-77
2023/05/16 02:12:05;;;;;;;5.15;0.20;;;7.10;99.90;;;;;;5060632;28;20079;-77
2023/05/16 02:14:30;;;;;;;7.85;0.40;;;7.20;99.90;;;;;;5060480;28;20033;-77
2023/05/16 02:16:57;;;;;;;6.30;0.10;;;7.10;99.90;;;;;;5060306;28;20025;-77
2023/05/16 02:19:22;;;;;;;10.93;0.75;;;7.10;99.90;;;;;;5042553;28;20113;-77
2023/05/16 02:21:49;;;;;;;5.90;0.30;;;7.20;99.90;;;;;;5060498;28;20448;-77
2023/05/16 02:24:14;;;;;;;7.70;0.28;;;7.10;99.90;;;;;;5042450;28;20033;-77
2023/05/16 02:26:40;;;;;;;7.55;1.00;;;7.10;99.90;;;;;;5060933;28;20029;-77
2023/05/16 02:29:05;;;;;;;7.88;2.08;;;7.10;99.90;;;;;;5042337;28;20021;-77
2023/05/16 02:31:33;;;;;;;8.18;0.52;;;7.10;99.90;;;;;;5060122;28;20093;-77
2023/05/16 02:33:59;;;;;;;9.18;0.85;;;7.10;99.90;;;;;;5059902;28;20109;-77
2023/05/16 02:36:25;;;;;;;3.75;0.00;;;7.10;99.90;;;;;;5060351;28;20071;-77
2023/05/16 02:38:51;;;;;;;8.95;0.28;;;7.10;99.90;;;;;;5060127;28;20025;-77
2023/05/16 02:41:16;;;;;;;8.80;1.05;;;8.10;99.90;;;;;;5042028;28;20017;-77
2023/05/16 02:43:43;;;;;;;7.13;0.68;;;7.10;99.90;;;;;;5060544;28;20411;-77
2023/05/16 02:46:26;;;;;;;4.25;0.00;;;7.00;99.90;;;;;;5060318;28;20381;-77
2023/05/16 02:48:52;;;;;;;10.02;0.77;;;7.00;99.90;;;;;;5042033;28;20017;-77
2023/05/16 02:51:20;;;;;;;8.95;0.43;;;7.00;99.90;;;;;;5038635;28;20504;-77
2023/05/16 02:53:46;;;;;;;8.67;1.40;;;7.00;99.90;;;;;;5039085;28;20013;-77
2023/05/16 02:56:12;;;;;;;8.75;0.90;;;7.00;99.90;;;;;;5039101;28;20033;-77
2023/05/16 02:58:37;;;;;;;8.25;1.73;;;6.90;99.90;;;;;;5038897;28;20017;-77
2023/05/16 03:01:03;;;;;;;9.68;1.17;;;7.00;99.90;;;;;;5056839;28;20057;-77
2023/05/16 03:03:29;;;;;;;6.25;0.68;;;6.90;99.90;;;;;;5039268;28;20029;-77
2023/05/16 03:05:54;;;;;;;9.02;0.10;;;6.90;99.90;;;;;;5056986;28;20017;-77
2023/05/16 03:08:20;;;;;;;3.85;0.10;;;6.80;99.90;;;;;;5056890;28;20472;-77
2023/05/16 03:10:46;;;;;;;8.68;0.55;;;6.80;99.90;;;;;;5056541;28;20029;-77
2023/05/16 03:13:11;;;;;;;6.32;0.52;;;6.80;99.90;;;;;;5056804;28;20095;-77
2023/05/16 03:15:37;;;;;;;16.65;1.65;;;6.70;99.90;;;;;;5056605;28;20056;-77
2023/05/16 03:18:02;;;;;;;3.72;0.00;;;6.70;99.90;;;;;;5038440;28;20013;-77
2023/05/16 03:20:28;;;;;;;3.67;0.00;;;6.70;99.90;;;;;;5056123;28;20021;-77
2023/05/16 03:22:53;;;;;;;9.63;0.90;;;6.70;99.90;;;;;;5038388;28;20120;-77
2023/05/16 03:25:19;;;;;;;9.20;1.17;;;6.60;99.90;;;;;;5056301;28;20029;-77
2023/05/16 03:27:44;;;;;;;8.85;1.35;;;6.60;99.90;;;;;;5056893;28;20051;-77
2023/05/16 03:30:11;;;;;;;4.82;0.55;;;6.60;99.90;;;;;;5056399;28;20033;-77
2023/05/16 03:32:37;;;;;;;8.73;0.77;;;6.60;99.90;;;;;;5056409;28;20052;-77
2023/05/16 03:35:03;;;;;;;10.40;0.82;;;6.60;99.90;;;;;;5056336;28;20048;-77
2023/05/16 03:37:29;;;;;;;8.05;0.50;;;6.60;99.90;;;;;;5038064;28;20124;-77
2023/05/16 03:39:54;;;;;;;9.80;0.52;;;6.60;99.90;;;;;;5055878;28;20021;-77
2023/05/16 03:42:20;;;;;;;8.40;0.08;;;6.50;99.90;;;;;;5038115;28;20040;-77
2023/05/16 03:44:46;;;;;;;9.50;0.10;;;6.50;99.90;;;;;;5037763;28;20120;-77
2023/05/16 03:47:11;;;;;;;5.45;0.10;;;6.50;99.90;;;;;;5055986;28;20037;-77
2023/05/16 03:49:37;;;;;;;8.48;0.57;;;6.40;99.90;;;;;;5055792;28;20060;-77
2023/05/16 03:52:04;;;;;;;4.30;0.00;;;6.40;99.90;;;;;;5038045;28;20024;-78
2023/05/16 03:54:30;;;;;;;4.68;0.00;;;6.40;99.90;;;;;;5037695;28;20086;-77
2023/05/16 03:56:55;;;;;;;4.40;0.25;;;6.30;99.90;;;;;;5037663;28;20411;-77
2023/05/16 03:59:21;;;;;;;3.42;0.32;;;6.30;99.90;;;;;;5055173;28;20025;-77
2023/05/16 04:01:47;;;;;;;4.97;0.10;;;6.30;99.90;;;;;;5054970;28;20028;-77
2023/05/16 04:04:13;;;;;;;6.13;1.05;;;6.30;99.90;;;;;;5055560;28;20025;-77
2023/05/16 04:06:38;;;;;;;7.28;0.57;;;6.30;99.90;;;;;;5055385;28;20021;-77
2023/05/16 04:09:08;;;;;;;10.57;0.40;;;;;;;;;;5055103;28;20029;-77
2023/05/16 04:11:34;;;;;;;3.92;0.00;;;6.40;99.90;;;;;;5037201;28;20450;-77
2023/05/16 04:14:00;;;;;;;6.82;0.30;;;6.40;99.90;;;;;;5037135;28;20017;-77
2023/05/16 04:16:26;;;;;;;3.15;0.00;;;6.40;99.90;;;;;;5055134;28;20031;-77
2023/05/16 04:18:52;;;;;;;7.05;0.35;;;6.40;99.90;;;;;;5055714;28;20021;-77
2023/05/16 04:21:17;;;;;;;7.25;1.27;;;6.40;99.90;;;;;;5055030;28;20020;-77
2023/05/16 04:23:43;;;;;;;8.02;0.22;;;6.40;99.90;;;;;;5037238;28;20021;-77
2023/05/16 04:26:08;;;;;;;10.75;0.63;;;6.50;99.90;;;;;;5037243;28;20483;-77
2023/05/16 04:28:34;;;;;;;3.50;0.25;;;6.60;99.90;;;;;;5037200;28;20123;-77
2023/05/16 04:31:00;;;;;;;4.85;0.17;;;6.60;99.90;;;;;;5055121;28;20570;-77
2023/05/16 04:33:26;;;;;;;4.40;0.00;;;6.80;99.90;;;;;;5055105;28;20029;-77
2023/05/16 04:35:53;;;;;;;8.70;0.22;;;6.80;99.90;;;;;;5055011;28;20031;-77
2023/05/16 04:38:19;;;;;;;8.85;0.30;;;6.90;99.90;;;;;;5054946;28;20013;-77
2023/05/16 04:40:45;;;;;;;18.65;1.85;;;6.90;99.90;;;;;;5054831;28;20021;-77
2023/05/16 04:43:10;;;;;;;4.15;0.50;;;6.90;99.90;;;;;;5054772;28;20147;-77
2023/05/16 04:45:36;;;;;;;5.43;0.43;;;7.00;99.90;;;;;;5054852;28;20536;-77
2023/05/16 04:48:01;;;;;;;8.40;1.23;;;7.20;99.90;;;;;;5054845;28;20036;-77
2023/05/16 04:50:27;;;;;;;9.50;0.70;;;7.20;99.90;;;;;;5055157;28;20025;-77
2023/05/16 04:52:52;;;;;;;4.03;0.20;;;7.40;99.90;;;;;;5037200;28;20075;-77
2023/05/16 04:55:18;;;;;;;6.43;0.20;;;7.40;99.90;;;;;;5054887;28;20017;-77
2023/05/16 04:57:44;;;;;;;5.57;0.75;;;7.50;99.90;;;;;;5036631;28;20037;-77
2023/05/16 05:00:11;;;;;;;6.93;0.15;;;7.50;99.90;;;;;;5055103;28;20392;-77
2023/05/16 05:02:37;;;;;;;5.57;0.60;;;7.60;99.90;;;;;;5054801;28;20376;-77
2023/05/16 05:05:04;;;;;;;7.55;0.68;;;7.70;99.90;;;;;;5054890;28;20494;-77
2023/05/16 05:07:30;;;;;;;4.50;0.05;;;7.80;99.90;;;;;;5054389;28;20023;-77
2023/05/16 05:09:55;;;;;;;7.10;0.75;;;7.90;99.90;;;;;;5054341;28;20021;-76
2023/05/16 05:12:21;;;;;;;9.45;0.52;;;7.90;99.90;;;;;;5035928;28;20020;-77
2023/05/16 05:14:47;;;;;;;5.05;0.40;;;8.00;99.90;;;;;;5053863;28;20022;-77
2023/05/16 05:17:12;;;;;;;7.28;0.20;;;7.90;99.90;;;;;;5053375;28;20070;-78
2023/05/16 05:19:38;;;;;;;6.63;0.50;;;8.20;99.90;;;;;;5053565;28;20063;-77
2023/05/16 05:22:04;;;;;;;8.43;0.98;;;8.30;99.90;;;;;;5036304;28;20017;-77
2023/05/16 05:24:29;;;;;;;3.78;0.28;;;8.40;99.90;;;;;;5036078;28;20029;-78
2023/05/16 05:26:55;;;;;;;1.58;0.00;;;8.50;99.90;;;;;;5054511;28;20056;-77
2023/05/16 05:29:21;;;;;;;6.25;0.35;;;8.60;99.90;;;;;;5053987;28;20036;-76
2023/05/16 05:31:47;;;;;;;8.93;0.40;;;8.80;99.90;;;;;;5054260;28;20029;-77
2023/05/16 05:34:12;;;;;;;9.00;0.10;;;9.00;99.90;;;;;;5053862;28;20082;-78
2023/05/16 05:36:38;;;;;;;5.32;0.20;;;9.00;99.90;;;;;;5053539;28;20160;-78
2023/05/16 05:39:03;;;;;;;5.15;0.38;;;9.20;99.90;;;;;;5035675;28;20036;-77
2023/05/16 05:41:29;;;;;;;7.85;0.30;;;10.00;99.90;;;;;;5053935;28;20025;-76
2023/05/16 05:43:54;;;;;;;8.18;0.68;;;9.40;99.90;;;;;;5053879;28;20032;-78
2023/05/16 05:46:20;;;;;;;5.13;1.10;;;9.50;99.90;;;;;;5053670;28;20036;-79
2023/05/16 05:48:46;;;;;;;7.28;0.55;;;9.60;99.90;;;;;;5053546;28;20100;-77
2023/05/16 05:51:13;;;;;;;8.68;1.08;;;9.70;99.90;;;;;;5035741;28;20025;-76
2023/05/16 05:53:39;;;;;;;4.57;0.43;;;9.90;99.90;;;;;;5035747;28;20024;-77
2023/05/16 05:56:05;;;;;;;8.88;0.28;;;10.00;99.90;;;;;;5054016;28;20035;-77
2023/05/16 05:58:31;;;;;;;5.40;0.40;;;10.20;99.90;;;;;;5035652;28;20115;-77
2023/05/16 06:00:56;;;;;;;6.88;0.38;;;10.40;99.90;;;;;;5035796;28;20025;-77
2023/05/16 06:03:28;;;;;;;5.90;0.00;;;14.00;99.90;;;;;;5053651;28;20021;-77
2023/05/16 06:05:53;;;;;;;5.90;0.20;;;10.70;99.90;;;;;;5035481;28;20021;-77
2023/05/16 06:08:19;;;;;;;4.50;0.20;;;10.70;99.90;;;;;;5053560;28;20071;-77
2023/05/16 06:10:45;;;;;;;18.08;1.17;;;;;;;;;;5053532;28;20017;-77
2023/05/16 06:13:11;;;;;;;4.82;0.75;;;11.00;99.90;;;;;;5052835;28;20029;-77
2023/05/16 06:15:36;;;;;;;5.10;0.35;;;12.50;99.90;;;;;;5033646;28;20032;-77
2023/05/16 06:18:02;;;;;;;5.63;0.20;;;11.10;99.90;;;;;;5051756;28;20046;-77
2023/05/16 06:20:27;;;;;;;4.25;0.10;;;11.20;99.90;;;;;;5035623;28;20025;-77
2023/05/16 06:22:53;;;;;;;2.75;0.38;;;11.30;99.90;;;;;;5052350;28;20025;-77
2023/05/16 06:25:19;;;;;;;8.18;0.15;;;11.30;99.90;;;;;;5036158;28;20024;-77
2023/05/16 06:27:44;;;;;;;4.45;0.47;;;11.40;99.90;;;;;;5057081;28;20072;-77
2023/05/16 06:30:10;;;;;;;4.00;0.00;;;11.40;99.90;;;;;;5039194;28;20049;-77
2023/05/16 06:32:36;;;;;;;3.15;0.00;;;11.50;99.90;;;;;;5056928;28;20029;-77
2023/05/16 06:35:01;;;;;;;7.75;0.00;;;11.50;99.90;;;;;;5056931;28;20041;-77
2023/05/16 06:37:27;;;;;;;3.80;0.00;;;11.40;99.90;;;;;;5038818;28;20549;-77
2023/05/16 06:39:53;;;;;;;2.97;0.00;;;11.40;99.90;;;;;;5057103;28;20408;-77
2023/05/16 06:42:19;;;;;;;7.55;0.35;;;11.30;99.90;;;;;;5056796;28;20020;-77
2023/05/16 06:44:45;;;;;;;10.88;0.22;;;11.20;99.90;;;;;;5057270;28;20017;-77
2023/05/16 06:47:13;;;;;;;3.90;0.13;;;11.20;99.90;;;;;;5038873;28;20041;-77
2023/05/16 06:49:39;;;;;;;1.55;0.00;;;11.40;99.90;;;;;;5038449;28;20021;-77
2023/05/16 06:52:05;;;;;;;5.82;0.00;;;11.90;99.90;;;;;;5056484;28;20040;-78
2023/05/16 06:54:31;;;;;;;5.57;0.13;;;11.90;99.90;;;;;;5056941;28;20025;-78
2023/05/16 06:56:56;;;;;;;4.40;0.40;;;12.20;99.90;;;;;;5038504;28;20043;-78
2023/05/16 06:59:22;;;;;;;4.20;0.05;;;12.50;99.90;;;;;;5056457;28;20440;-77
2023/05/16 07:01:48;;;;;;;3.58;0.00;;;12.70;99.90;;;;;;5056496;28;20017;-77
2023/05/16 07:04:14;;;;;;;8.43;0.32;;;13.10;99.90;;;;;;5038718;28;20017;-77
2023/05/16 07:06:40;;;;;;;4.65;0.00;;;14.30;99.90;;;;;;5056774;28;20027;-78
2023/05/16 07:09:06;;;;;;;4.25;0.17;;;12.70;99.90;;;;;;5056741;28;20025;-77
2023/05/16 07:11:31;;;;;;;3.95;0.00;;;12.80;99.90;;;;;;5056196;28;20472;-77
2023/05/16 07:13:57;;;;;;;3.03;0.20;;;13.00;99.90;;;;;;5056313;28;20088;-77
2023/05/16 07:16:23;;;;;;;6.32;0.00;;;13.40;99.90;;;;;;5038071;28;20029;-78
2023/05/16 07:18:48;;;;;;;5.10;0.00;;;13.20;99.90;;;;;;5038295;28;20044;-78
2023/05/16 07:21:14;;;;;;;0.85;0.10;;;13.30;99.90;;;;;;5038470;28;20021;-78
2023/05/16 07:23:40;;;;;;;3.17;0.13;;;13.30;99.90;;;;;;5038405;28;20024;-78
2023/05/16 07:26:05;;;;;;;4.15;0.10;;;13.10;99.90;;;;;;5038193;28;20074;-78
2023/05/16 07:28:31;;;;;;;1.33;0.00;;;13.10;99.90;;;;;;5055799;28;20029;-77
2023/05/16 07:30:59;;;;;;;6.55;0.03;;;12.90;99.90;;;;;;5055800;28;20106;-78
2023/05/16 07:33:26;;;;;;;4.53;0.20;;;13.80;99.90;;;;;;5038376;28;20504;-78
2023/05/16 07:35:54;;;;;;;2.50;0.40;;;12.30;99.90;;;;;;5055606;28;20021;-78
2023/05/16 07:38:20;;;;;;;6.78;0.00;;;12.20;99.90;;;;;;5038267;28;20025;-77
2023/05/16 07:40:46;;;;;;;1.30;0.22;;;12.20;99.90;;;;;;5056054;28;20017;-78
2023/05/16 07:43:12;;;;;;;0.98;0.00;;;12.40;99.90;;;;;;5056088;28;20009;-78
2023/05/16 07:45:37;;;;;;;3.33;0.00;;;12.30;99.90;;;;;;5037943;28;20075;-78
2023/05/16 07:48:03;;;;;;;2.63;0.00;;;12.30;99.90;;;;;;5055678;28;20484;-77
2023/05/16 07:50:29;;;;;;;5.45;0.00;;;12.10;99.90;;;;;;5056416;28;20096;-77
2023/05/16 07:52:55;;;;;;;3.83;1.23;;;12.00;99.90;;;;;;5055466;28;20025;-77
2023/05/16 07:55:21;;;;;;;2.80;0.00;;;11.80;99.90;;;;;;5037682;28;20033;-77
2023/05/16 07:57:47;;;;;;;0.95;0.10;;;11.60;99.90;;;;;;5055024;28;20025;-78
2023/05/16 08:00:13;;;;;;;0.73;0.00;;;11.40;99.90;;;;;;5055114;28;20053;-77
2023/05/16 08:02:40;;;;;;;2.72;0.00;;;11.60;99.90;;;;;;5055278;28;20024;-77
2023/05/16 08:05:06;;;;;;;1.55;0.10;;;12.50;99.90;;;;;;5055451;28;20036;-78
2023/05/16 08:07:32;;;;;;;3.25;0.00;;;12.50;99.90;;;;;;5037634;28;20070;-77
2023/05/16 08:09:58;;;;;;;1.83;0.00;;;13.20;99.90;;;;;;5055630;28;20103;-77
2023/05/16 08:12:24;;;;;;;5.78;0.52;;;12.90;99.90;;;;;;5037062;28;20025;-77
2023/05/16 08:14:49;;;;;;;8.60;0.52;;;13.30;99.90;;;;;;5037363;28;20021;-77
2023/05/16 08:17:15;;;;;;;4.15;0.45;;;13.70;99.90;;;;;;5055123;28;20033;-78
2023/05/16 08:19:40;;;;;;;3.72;0.10;;;14.60;99.90;;;;;;5037224;28;20498;-78
2023/05/16 08:22:07;;;;;;;2.25;0.20;;;14.00;99.90;;;;;;5055412;28;20100;-78
2023/05/16 08:24:33;;;;;;;1.38;0.00;;;14.00;99.90;;;;;;5037259;28;20029;-77
2023/05/16 08:26:59;;;;;;;2.42;0.20;;;14.10;99.90;;;;;;5036982;28;20029;-77
2023/05/16 08:29:25;;;;;;;2.45;0.43;;;14.30;99.90;;;;;;5055012;28;20032;-78
2023/05/16 08:31:51;;;;;;;4.45;0.20;;;14.70;99.90;;;;;;5054891;28;20024;-78
2023/05/16 08:34:16;;;;;;;3.28;0.00;;;14.60;99.90;;;;;;5036048;28;20036;-78
2023/05/16 08:36:42;;;;;;;11.27;1.10;;;14.90;99.90;;;;;;5054610;28;20058;-78
2023/05/16 08:39:10;;;;;;;3.53;0.00;;;15.00;99.90;;;;;;5037453;28;20028;-78
2023/05/16 08:41:36;;;;;;;2.13;0.00;;;15.00;99.90;;;;;;5036688;28;20419;-78
2023/05/16 08:44:02;;;;;;;3.83;0.00;;;15.20;99.90;;;;;;5054708;28;20020;-78
2023/05/16 08:46:30;;;;;;;1.98;0.00;;;15.10;99.90;;;;;;5036634;28;20037;-78
2023/05/16 08:48:58;;;;;;;3.03;0.00;;;15.20;99.90;;;;;;5053880;28;20020;-77
2023/05/16 08:51:25;;;;;;;1.17;0.08;;;15.60;99.90;;;;;;5054469;28;20018;-78
2023/05/16 08:54:02;;;;;;;10.82;0.68;;;16.00;99.90;;;;;;5054560;28;20036;-78
2023/05/16 08:56:28;;;;;;;1.73;0.28;;;16.20;99.90;;;;;;5054389;28;20438;-78
2023/05/16 08:58:54;;;;;;;1.05;0.00;;;16.50;99.90;;;;;;5054158;28;20435;-77
2023/05/16 09:01:21;;;;;;;1.50;0.00;;;16.50;99.80;;;;;;5036047;28;20013;-78
2023/05/16 09:03:51;;;;;;;4.55;0.03;;;16.60;99.50;;;;;;5054287;28;20017;-78
2023/05/16 09:06:17;;;;;;;3.45;0.00;;;16.30;97.60;;;;;;5035566;28;20550;-77
2023/05/16 09:08:43;;;;;;;3.10;0.03;;;16.90;98.00;;;;;;5054037;28;20104;-77
2023/05/16 09:11:09;;;;;;;2.30;0.35;;;15.80;99.40;;;;;;5054102;28;20068;-78
2023/05/16 09:13:36;;;;;;;1.98;0.20;;;16.50;99.90;;;;;;5054036;28;20104;-77
2023/05/16 09:16:12;;;;;;;3.15;0.03;;;17.60;99.90;;;;;;5053871;28;20507;-77
2023/05/16 09:18:56;;;;;;;1.75;0.00;;;15.00;99.90;;;;;;5036005;28;20476;-77
2023/05/16 09:21:25;;;;;;;0.30;0.00;;;15.10;99.90;;;;;;5035576;28;20023;-78
2023/05/16 09:23:51;;;;;;;4.43;0.00;;;14.90;99.90;;;;;;5035645;28;20033;-78
2023/05/16 09:26:17;;;;;;;2.58;0.00;;;14.80;99.90;;;;;;5035752;28;20021;-78
2023/05/16 09:28:43;;;;;;;2.67;0.08;;;15.40;99.90;;;;;;5053763;28;20392;-77
2023/05/16 09:31:25;;;;;;;5.13;0.40;;;14.80;99.90;;;;;;5054286;28;20055;-77
2023/05/16 09:33:52;;;;;;;6.57;0.38;;;14.80;99.90;;;;;;5053758;28;20039;-78
2023/05/16 09:36:18;;;;;;;1.52;0.30;;;14.90;99.90;;;;;;5053911;28;20056;-77
2023/05/16 09:38:44;;;;;;;1.90;0.00;;;15.30;99.90;;;;;;5053792;28;20508;-77
2023/05/16 09:41:10;;;;;;;7.43;0.47;;;15.90;99.90;;;;;;5053813;28;20028;-78
2023/05/16 09:43:42;;;;;;;2.05;0.00;;;16.00;98.10;;;;;;5053899;28;20075;-78
2023/05/16 09:46:11;;;;;;;1.63;0.00;;;15.90;99.40;;;;;;5054088;28;20451;-77
2023/05/16 09:48:40;;;;;;;3.00;0.00;;;15.90;99.80;;;;;;5035638;28;20017;-78
2023/05/16 09:51:07;;;;;;;1.23;0.30;;;16.20;99.90;;;;;;5053770;28;20021;-78
2023/05/16 09:53:33;;;;;;;2.15;0.00;;;15.90;99.90;;;;;;5053851;28;20017;-78
2023/05/16 09:56:04;;;;;;;19.65;1.48;;;16.00;99.90;;;;;;5036044;28;20027;-77
2023/05/16 09:58:31;;;;;;;4.88;0.90;;;16.10;99.90;;;;;;5036248;28;20021;-78
2023/05/16 10:00:57;;;;;;;2.22;0.28;;;16.40;99.90;;;;;;5057383;28;20496;-77
2023/05/16 10:03:23;;;;;;;3.20;0.50;;;16.50;99.70;;;;;;5057848;28;20037;-78
2023/05/16 10:05:51;;;;;;;1.63;0.00;;;16.30;99.30;;;;;;5058086;28;20068;-78
2023/05/16 10:08:20;;;;;;;0.93;0.00;;;16.10;99.90;;;;;;5039622;28;20024;-78
2023/05/16 10:10:46;;;;;;;3.63;0.00;;;15.90;99.90;;;;;;5039639;28;20279;-77
2023/05/16 10:13:13;;;;;;;1.38;0.05;;;15.80;99.90;;;;;;5039707;28;20127;-77
2023/05/16 10:15:40;;;;;;;10.00;0.75;;;16.40;99.90;;;;;;5057426;28;20025;-77
2023/05/16 10:18:10;;;;;;;3.00;0.00;;;16.40;99.90;;;;;;5057456;28;20365;-77
2023/05/16 10:20:37;;;;;;;2.50;0.20;;;16.40;99.90;;;;;;5039507;28;20021;-77
2023/05/16 10:23:04;;;;;;;4.38;0.50;;;16.90;99.90;;;;;;5039422;28;20023;-77
2023/05/16 10:25:40;;;;;;;0.63;0.03;;;17.30;95.70;;;;;;5057393;28;20021;-77
2023/05/16 10:28:07;;;;;;;2.30;0.00;;;17.10;94.90;;;;;;5057807;28;20047;-77
2023/05/16 10:30:34;;;;;;;0.80;0.00;;;17.10;94.80;;;;;;5057241;28;20526;-77
2023/05/16 10:33:03;;;;;;;1.23;0.00;;;17.20;96.20;;;;;;5056731;28;20469;-77
2023/05/16 10:35:29;;;;;;;5.10;0.00;;;17.00;96.90;;;;;;5057177;28;20017;-77
2023/05/16 10:37:56;;;;;;;3.60;0.10;;;17.00;97.00;;;;;;5039204;28;20025;-78
2023/05/16 10:40:22;;;;;;;0.85;0.13;;;16.90;97.30;;;;;;5056781;28;20032;-78
2023/05/16 10:42:59;;;;;;;4.03;0.10;;;16.60;98.30;;;;;;5056896;28;20032;-77
2023/05/16 10:45:25;;;;;;;1.70;0.10;;;17.30;98.70;;;;;;5056922;28;20083;-78
2023/05/16 10:47:54;;;;;;;1.65;0.10;;;16.70;97.20;;;;;;5039048;28;20033;-78
2023/05/16 10:50:42;;;;;;;2.13;0.00;;;16.70;97.80;;;;;;5056894;28;20021;-77
2023/05/16 10:53:19;;;;;;;1.42;0.00;;;16.70;96.80;;;;;;5038734;28;20407;-77
2023/05/16 10:55:48;;;;;;;2.50;0.00;;;16.70;93.80;;;;;;5038583;28;20025;-78
2023/05/16 10:58:38;;;;;;;0.95;0.00;;;16.60;94.30;;;;;;5056381;28;20032;-77
2023/05/16 11:01:26;;;;;;;2.45;0.00;;;16.90;97.30;;;;;;5055874;28;20044;-77
2023/05/16 11:04:05;;;;;;;5.05;0.10;;;17.00;95.50;;;;;;5056458;28;20013;-77
2023/05/16 11:06:33;;;;;;;;;;;17.30;95.90;;;;;;5038989;28;20033;-77
2023/05/16 11:09:05;;;;;;;3.10;0.10;;;17.30;93.80;;;;;;5056194;28;19904;-77
2023/05/16 11:11:41;;;;;;;1.00;0.00;;;17.70;95.30;;;;;;5055565;28;20043;-78
2023/05/16 11:14:07;;;;;;;2.13;0.00;;;18.50;92.40;;;;;;5056328;28;20028;-77
2023/05/16 11:16:35;;;;;;;0.60;0.00;;;18.50;92.50;;;;;;5038398;28;20033;-77
2023/05/16 11:19:07;;;;;;;2.08;0.15;;;18.30;90.50;;;;;;5038744;28;20504;-77
2023/05/16 11:22:17;;;;;;;2.15;0.13;;;18.20;90.80;;;;;;5056309;28;20013;-77
2023/05/16 11:24:55;;;;;;;2.92;0.00;;;17.90;91.60;;;;;;5038082;28;20531;-78
2023/05/16 11:27:27;;;;;;;1.45;0.00;;;17.80;91.40;;;;;;5055855;28;20095;-77
2023/05/16 11:29:58;;;;;;;2.10;0.00;;;17.60;92.10;;;;;;5038056;28;20027;-77
2023/05/16 11:32:24;;;;;;;2.72;0.10;;;17.70;93.20;;;;;;5055973;28;20021;-77
2023/05/16 11:34:51;;;;;;;2.63;0.00;;;17.80;93.30;;;;;;5056114;28;20025;-77
2023/05/16 11:37:18;;;;;;;4.97;0.00;;;17.30;92.40;;;;;;5055598;28;20075;-78
2023/05/16 11:39:45;;;;;;;3.00;0.00;;;17.20;92.60;;;;;;5055922;28;20495;-77
2023/05/16 11:42:12;;;;;;;1.20;0.00;;;17.00;92.50;;;;;;5056154;28;20027;-77
2023/05/16 11:44:38;;;;;;;3.05;0.00;;;16.70;94.10;;;;;;5055660;28;20493;-77
2023/05/16 11:47:04;;;;;;;4.00;0.20;;;16.30;93.70;;;;;;5055756;28;20029;-77
2023/05/16 11:49:30;;;;;;;1.75;0.20;;;15.80;95.30;;;;;;5055721;28;20036;-77
2023/05/16 11:51:59;;;;;;;3.60;0.22;;;16.60;96.80;;;;;;5055286;28;20025;-78
2023/05/16 11:54:25;;;;;;;1.25;0.00;;;15.10;96.30;;;;;;5055699;28;20033;-78
2023/05/16 11:56:51;;;;;;;4.43;0.00;;;14.90;97.60;;;;;;5037312;28;20033;-77
2023/05/16 11:59:17;;;;;;;1.90;0.00;;;14.90;97.70;;;;;;5037371;28;20017;-77
2023/05/16 12:01:49;;;;;;;2.60;0.03;;;14.90;98.20;;;;;;5055643;28;20024;-77
2023/05/16 12:04:15;;;;;;;4.38;0.00;;;14.90;99.60;;;;;;5055732;28;20398;-77
2023/05/16 12:06:43;;;;;;;1.50;0.20;;;15.00;99.90;;;;;;5054768;28;20036;-77
2023/05/16 12:09:13;;;;;;;4.35;0.00;;;15.20;99.90;;;;;;5054668;28;20078;-77
2023/05/16 12:11:40;;;;;;;1.65;0.00;;;15.40;99.90;;;;;;5036745;28;20464;-77
2023/05/16 12:14:08;;;;;;;2.60;0.10;;;15.80;99.90;;;;;;5036610;28;20377;-77
2023/05/16 12:16:35;;;;;;;3.73;0.00;;;16.80;99.60;;;;;;5054417;28;20107;-77
2023/05/16 12:19:03;;;;;;;3.50;0.80;;;17.20;95.60;;;;;;5054371;28;20142;-77
2023/05/16 12:21:32;;;;;;;0.40;0.00;;;17.60;95.40;;;;;;5054420;28;20010;-77
2023/05/16 12:23:59;;;;;;;0.82;0.03;;;17.60;95.40;;;;;;5053500;28;20025;-77
2023/05/16 12:26:26;;;;;;;1.60;0.00;;;17.90;93.90;;;;;;5036379;28;20035;-77
2023/05/16 12:29:02;;;;;;;2.47;0.20;;;16.90;94.30;;;;;;5054187;28;20025;-77
2023/05/16 12:31:29;;;;;;;1.55;0.25;;;16.70;95.30;;;;;;5054255;28;20025;-77
2023/05/16 12:33:55;;;;;;;2.03;0.10;;;16.10;94.30;;;;;;5036310;28;20017;-77
2023/05/16 12:36:23;;;;;;;1.60;0.00;;;16.00;97.40;;;;;;5054711;28;20025;-77
2023/05/16 12:38:49;;;;;;;1.80;0.20;;;16.40;97.40;;;;;;5053969;28;20025;-77
2023/05/16 12:41:20;;;;;;;1.45;0.00;;;16.90;95.10;;;;;;5036166;28;20086;-77
2023/05/16 12:43:46;;;;;;;2.15;0.00;;;17.40;95.40;;;;;;5053872;28;20028;-77
2023/05/16 12:46:15;;;;;;;0.57;0.00;;;18.10;96.10;;;;;;5053906;28;20040;-77
2023/05/16 12:48:42;;;;;;;2.80;0.13;;;18.00;95.40;;;;;;5036081;28;20412;-77
2023/05/16 12:51:11;;;;;;;2.20;0.00;;;18.20;94.10;;;;;;5053964;28;20013;-77
2023/05/16 12:53:45;;;;;;;1.13;0.00;;;18.50;93.80;;;;;;5053924;28;20025;-77
2023/05/16 12:56:12;;;;;;;1.95;0.00;;;18.60;91.90;;;;;;5035890;28;20024;-77